sensor_id;sensor_type;location;lat;lon;timestamp;P1;durP1;ratioP1;P2;durP2;ratioP2
11711;SDS011;5912;51.034;6.984;2024-01-16T00:01:54;7.40;;;5.70;;
11711;SDS011;5912;51.034;6.984;2024-01-16T00:04:19;8.50;;;6.07;;
11711;SDS011;5912;51.034;6.984;2024-01-16T00:06:44;6.57;;;5.83;;
11711;SDS011;5912;51.034;6.984;2024-01-16T00:09:10;8.47;;;5.77;;
11711;SDS011;5912;51.034;6.984;2024-01-16T00:11:42;7.63;;;5.70;;
11711;SDS011;5912;51.034;6.984;2024-01-16T00:14:08;7.93;;;6.03;;
11711;SDS011;5912;51.034;6.984;2024-01-16T00:16:33;10.53;;;6.10;;
11711;SDS011;5912;51.034;6.984;2024-01-16T00:18:58;9.53;;;6.43;;
11711;SDS011;5912;51.034;6.984;2024-01-16T00:21:24;8.20;;;6.13;;
11711;SDS011;5912;51.034;6.984;2024-01-16T00:23:49;11.63;;;5.93;;
11711;SDS011;5912;51.034;6.984;2024-01-16T00:26:21;8.83;;;6.37;;
11711;SDS011;5912;51.034;6.984;2024-01-16T00:28:47;12.13;;;6.50;;
11711;SDS011;5912;51.034;6.984;2024-01-16T00:31:12;13.30;;;6.97;;
11711;SDS011;5912;51.034;6.984;2024-01-16T00:33:38;9.03;;;6.37;;
11711;SDS011;5912;51.034;6.984;2024-01-16T00:36:04;8.30;;;6.77;;
11711;SDS011;5912;51.034;6.984;2024-01-16T00:38:32;9.70;;;6.90;;
11711;SDS011;5912;51.034;6.984;2024-01-16T00:40:58;10.13;;;7.00;;
11711;SDS011;5912;51.034;6.984;2024-01-16T00:43:23;7.77;;;6.33;;
11711;SDS011;5912;51.034;6.984;2024-01-16T00:45:49;12.53;;;7.10;;
11711;SDS011;5912;51.034;6.984;2024-01-16T00:48:14;13.27;;;6.80;;
11711;SDS011;5912;51.034;6.984;2024-01-16T00:50:40;9.77;;;6.67;;
11711;SDS011;5912;51.034;6.984;2024-01-16T00:53:06;10.93;;;6.80;;
11711;SDS011;5912;51.034;6.984;2024-01-16T00:55:31;10.10;;;7.13;;
11711;SDS011;5912;51.034;6.984;2024-01-16T00:57:57;9.83;;;6.57;;
11711;SDS011;5912;51.034;6.984;2024-01-16T01:00:22;11.00;;;7.10;;
11711;SDS011;5912;51.034;6.984;2024-01-16T01:02:47;9.53;;;6.93;;
11711;SDS011;5912;51.034;6.984;2024-01-16T01:05:13;10.03;;;6.70;;
11711;SDS011;5912;51.034;6.984;2024-01-16T01:07:38;10.27;;;6.83;;
11711;SDS011;5912;51.034;6.984;2024-01-16T01:10:03;10.60;;;7.27;;
11711;SDS011;5912;51.034;6.984;2024-01-16T01:12:29;14.87;;;7.47;;
11711;SDS011;5912;51.034;6.984;2024-01-16T01:14:54;13.57;;;6.53;;
11711;SDS011;5912;51.034;6.984;2024-01-16T01:17:19;8.33;;;7.00;;
11711;SDS011;5912;51.034;6.984;2024-01-16T01:19:45;10.87;;;7.30;;
11711;SDS011;5912;51.034;6.984;2024-01-16T01:22:11;10.33;;;7.23;;
11711;SDS011;5912;51.034;6.984;2024-01-16T01:24:37;13.00;;;7.53;;
11711;SDS011;5912;51.034;6.984;2024-01-16T01:27:02;9.07;;;7.27;;
11711;SDS011;5912;51.034;6.984;2024-01-16T01:29:28;8.37;;;6.67;;
11711;SDS011;5912;51.034;6.984;2024-01-16T01:31:54;9.53;;;6.20;;
11711;SDS011;5912;51.034;6.984;2024-01-16T01:34:19;11.20;;;6.50;;
11711;SDS011;5912;51.034;6.984;2024-01-16T01:36:44;9.83;;;6.37;;
11711;SDS011;5912;51.034;6.984;2024-01-16T01:39:10;11.03;;;6.37;;
11711;SDS011;5912;51.034;6.984;2024-01-16T01:41:38;8.63;;;5.97;;
11711;SDS011;5912;51.034;6.984;2024-01-16T01:44:05;9.27;;;6.30;;
11711;SDS011;5912;51.034;6.984;2024-01-16T01:46:31;11.23;;;6.40;;
11711;SDS011;5912;51.034;6.984;2024-01-16T01:48:59;8.20;;;5.73;;
11711;SDS011;5912;51.034;6.984;2024-01-16T01:51:24;10.50;;;6.00;;
11711;SDS011;5912;51.034;6.984;2024-01-16T01:53:51;8.17;;;5.43;;
11711;SDS011;5912;51.034;6.984;2024-01-16T01:56:18;10.73;;;5.90;;
11711;SDS011;5912;51.034;6.984;2024-01-16T01:58:45;10.17;;;5.67;;
11711;SDS011;5912;51.034;6.984;2024-01-16T02:01:12;7.53;;;5.53;;
11711;SDS011;5912;51.034;6.984;2024-01-16T02:03:43;10.83;;;5.57;;
11711;SDS011;5912;51.034;6.984;2024-01-16T02:06:10;8.53;;;4.80;;
11711;SDS011;5912;51.034;6.984;2024-01-16T02:08:36;7.43;;;5.20;;
11711;SDS011;5912;51.034;6.984;2024-01-16T02:11:05;9.63;;;5.40;;
11711;SDS011;5912;51.034;6.984;2024-01-16T02:13:31;6.50;;;4.77;;
11711;SDS011;5912;51.034;6.984;2024-01-16T02:15:56;9.13;;;5.37;;
11711;SDS011;5912;51.034;6.984;2024-01-16T02:18:22;7.93;;;5.50;;
11711;SDS011;5912;51.034;6.984;2024-01-16T02:20:47;10.43;;;6.47;;
11711;SDS011;5912;51.034;6.984;2024-01-16T02:23:13;7.43;;;5.23;;
11711;SDS011;5912;51.034;6.984;2024-01-16T02:25:42;6.93;;;5.43;;
11711;SDS011;5912;51.034;6.984;2024-01-16T02:28:08;9.87;;;5.97;;
11711;SDS011;5912;51.034;6.984;2024-01-16T02:30:34;7.87;;;5.50;;
11711;SDS011;5912;51.034;6.984;2024-01-16T02:32:59;10.97;;;6.03;;
11711;SDS011;5912;51.034;6.984;2024-01-16T02:35:25;8.93;;;6.50;;
11711;SDS011;5912;51.034;6.984;2024-01-16T02:37:50;9.33;;;6.50;;
11711;SDS011;5912;51.034;6.984;2024-01-16T02:40:15;10.37;;;6.80;;
11711;SDS011;5912;51.034;6.984;2024-01-16T02:42:41;11.40;;;5.87;;
11711;SDS011;5912;51.034;6.984;2024-01-16T02:45:06;9.50;;;5.07;;
11711;SDS011;5912;51.034;6.984;2024-01-16T02:47:32;12.77;;;5.17;;
11711;SDS011;5912;51.034;6.984;2024-01-16T02:49:59;11.40;;;5.13;;
11711;SDS011;5912;51.034;6.984;2024-01-16T02:52:24;6.60;;;4.57;;
11711;SDS011;5912;51.034;6.984;2024-01-16T02:54:49;7.60;;;4.80;;
11711;SDS011;5912;51.034;6.984;2024-01-16T02:57:15;7.87;;;4.67;;
11711;SDS011;5912;51.034;6.984;2024-01-16T02:59:43;9.33;;;4.43;;
11711;SDS011;5912;51.034;6.984;2024-01-16T03:02:08;8.80;;;4.97;;
11711;SDS011;5912;51.034;6.984;2024-01-16T03:04:34;7.50;;;4.33;;
11711;SDS011;5912;51.034;6.984;2024-01-16T03:07:00;9.93;;;4.83;;
11711;SDS011;5912;51.034;6.984;2024-01-16T03:09:25;6.67;;;4.80;;
11711;SDS011;5912;51.034;6.984;2024-01-16T03:11:51;7.87;;;5.03;;
11711;SDS011;5912;51.034;6.984;2024-01-16T03:14:17;8.57;;;4.47;;
11711;SDS011;5912;51.034;6.984;2024-01-16T03:16:43;6.83;;;4.60;;
11711;SDS011;5912;51.034;6.984;2024-01-16T03:19:09;6.77;;;4.40;;
11711;SDS011;5912;51.034;6.984;2024-01-16T03:21:34;8.53;;;5.40;;
11711;SDS011;5912;51.034;6.984;2024-01-16T03:23:59;8.00;;;4.90;;
11711;SDS011;5912;51.034;6.984;2024-01-16T03:26:25;11.30;;;4.97;;
11711;SDS011;5912;51.034;6.984;2024-01-16T03:28:50;10.80;;;5.57;;
11711;SDS011;5912;51.034;6.984;2024-01-16T03:31:16;7.90;;;4.90;;
11711;SDS011;5912;51.034;6.984;2024-01-16T03:33:41;10.70;;;4.70;;
11711;SDS011;5912;51.034;6.984;2024-01-16T03:36:08;7.33;;;5.57;;
11711;SDS011;5912;51.034;6.984;2024-01-16T03:38:38;8.20;;;4.77;;
11711;SDS011;5912;51.034;6.984;2024-01-16T03:41:03;8.57;;;5.17;;
11711;SDS011;5912;51.034;6.984;2024-01-16T03:43:31;7.67;;;4.60;;
11711;SDS011;5912;51.034;6.984;2024-01-16T03:45:57;9.30;;;4.60;;
11711;SDS011;5912;51.034;6.984;2024-01-16T03:48:23;7.60;;;5.07;;
11711;SDS011;5912;51.034;6.984;2024-01-16T03:50:48;10.87;;;4.97;;
11711;SDS011;5912;51.034;6.984;2024-01-16T03:53:13;10.07;;;4.77;;
11711;SDS011;5912;51.034;6.984;2024-01-16T03:55:39;6.87;;;5.33;;
11711;SDS011;5912;51.034;6.984;2024-01-16T03:58:04;7.97;;;4.77;;
11711;SDS011;5912;51.034;6.984;2024-01-16T04:00:29;8.30;;;5.00;;
11711;SDS011;5912;51.034;6.984;2024-01-16T04:02:55;9.53;;;5.33;;
11711;SDS011;5912;51.034;6.984;2024-01-16T04:05:20;9.03;;;5.10;;
11711;SDS011;5912;51.034;6.984;2024-01-16T04:07:45;8.00;;;5.40;;
11711;SDS011;5912;51.034;6.984;2024-01-16T04:10:11;8.83;;;4.93;;
11711;SDS011;5912;51.034;6.984;2024-01-16T04:12:36;10.13;;;4.97;;
11711;SDS011;5912;51.034;6.984;2024-01-16T04:15:01;6.87;;;5.03;;
11711;SDS011;5912;51.034;6.984;2024-01-16T04:17:27;7.80;;;5.50;;
11711;SDS011;5912;51.034;6.984;2024-01-16T04:19:52;8.60;;;5.77;;
11711;SDS011;5912;51.034;6.984;2024-01-16T04:22:17;9.27;;;6.17;;
11711;SDS011;5912;51.034;6.984;2024-01-16T04:24:42;7.33;;;5.73;;
11711;SDS011;5912;51.034;6.984;2024-01-16T04:27:10;13.13;;;6.23;;
11711;SDS011;5912;51.034;6.984;2024-01-16T04:29:37;9.50;;;5.70;;
11711;SDS011;5912;51.034;6.984;2024-01-16T04:32:02;7.80;;;5.97;;
11711;SDS011;5912;51.034;6.984;2024-01-16T04:34:29;9.50;;;6.20;;
11711;SDS011;5912;51.034;6.984;2024-01-16T04:36:54;12.27;;;6.40;;
11711;SDS011;5912;51.034;6.984;2024-01-16T04:39:20;8.17;;;5.67;;
11711;SDS011;5912;51.034;6.984;2024-01-16T04:41:47;6.20;;;4.87;;
11711;SDS011;5912;51.034;6.984;2024-01-16T04:44:13;7.37;;;5.50;;
11711;SDS011;5912;51.034;6.984;2024-01-16T04:46:39;7.97;;;5.03;;
11711;SDS011;5912;51.034;6.984;2024-01-16T04:49:04;8.87;;;4.67;;
11711;SDS011;5912;51.034;6.984;2024-01-16T04:51:29;6.60;;;4.70;;
11711;SDS011;5912;51.034;6.984;2024-01-16T04:53:54;10.07;;;4.90;;
11711;SDS011;5912;51.034;6.984;2024-01-16T04:56:20;7.67;;;4.67;;
11711;SDS011;5912;51.034;6.984;2024-01-16T04:58:46;10.30;;;4.90;;
11711;SDS011;5912;51.034;6.984;2024-01-16T05:01:11;7.27;;;5.07;;
11711;SDS011;5912;51.034;6.984;2024-01-16T05:03:38;8.30;;;4.73;;
11711;SDS011;5912;51.034;6.984;2024-01-16T05:06:03;8.00;;;4.97;;
11711;SDS011;5912;51.034;6.984;2024-01-16T05:08:28;9.07;;;5.00;;
11711;SDS011;5912;51.034;6.984;2024-01-16T05:10:55;11.07;;;5.60;;
11711;SDS011;5912;51.034;6.984;2024-01-16T05:13:21;7.60;;;5.10;;
11711;SDS011;5912;51.034;6.984;2024-01-16T05:15:46;6.33;;;4.70;;
11711;SDS011;5912;51.034;6.984;2024-01-16T05:18:11;7.10;;;5.03;;
11711;SDS011;5912;51.034;6.984;2024-01-16T05:20:37;10.07;;;5.87;;
11711;SDS011;5912;51.034;6.984;2024-01-16T05:23:02;8.27;;;6.23;;
11711;SDS011;5912;51.034;6.984;2024-01-16T05:25:27;12.63;;;6.50;;
11711;SDS011;5912;51.034;6.984;2024-01-16T05:27:53;10.67;;;6.90;;
11711;SDS011;5912;51.034;6.984;2024-01-16T05:30:18;10.37;;;6.93;;
11711;SDS011;5912;51.034;6.984;2024-01-16T05:32:43;8.37;;;6.53;;
11711;SDS011;5912;51.034;6.984;2024-01-16T05:35:09;8.83;;;6.90;;
11711;SDS011;5912;51.034;6.984;2024-01-16T05:37:34;11.53;;;6.43;;
11711;SDS011;5912;51.034;6.984;2024-01-16T05:40:00;9.17;;;5.70;;
11711;SDS011;5912;51.034;6.984;2024-01-16T05:42:27;8.60;;;6.20;;
11711;SDS011;5912;51.034;6.984;2024-01-16T05:44:53;15.47;;;5.43;;
11711;SDS011;5912;51.034;6.984;2024-01-16T05:47:18;10.90;;;5.50;;
11711;SDS011;5912;51.034;6.984;2024-01-16T05:49:44;7.47;;;4.97;;
11711;SDS011;5912;51.034;6.984;2024-01-16T05:52:09;8.73;;;5.17;;
11711;SDS011;5912;51.034;6.984;2024-01-16T05:54:35;8.77;;;4.30;;
11711;SDS011;5912;51.034;6.984;2024-01-16T06:00:00;8.03;;;3.90;;
11711;SDS011;5912;51.034;6.984;2024-01-16T06:02:28;8.13;;;3.90;;
11711;SDS011;5912;51.034;6.984;2024-01-16T06:04:54;7.20;;;3.33;;
11711;SDS011;5912;51.034;6.984;2024-01-16T06:07:19;7.40;;;3.57;;
11711;SDS011;5912;51.034;6.984;2024-01-16T06:09:44;10.00;;;3.70;;
11711;SDS011;5912;51.034;6.984;2024-01-16T06:15:06;8.60;;;3.67;;
11711;SDS011;5912;51.034;6.984;2024-01-16T06:17:32;10.93;;;4.13;;
11711;SDS011;5912;51.034;6.984;2024-01-16T06:19:57;7.27;;;3.83;;
11711;SDS011;5912;51.034;6.984;2024-01-16T06:22:22;4.80;;;2.97;;
11711;SDS011;5912;51.034;6.984;2024-01-16T06:24:48;8.83;;;2.77;;
11711;SDS011;5912;51.034;6.984;2024-01-16T06:27:13;6.97;;;3.00;;
11711;SDS011;5912;51.034;6.984;2024-01-16T06:29:44;4.93;;;2.80;;
11711;SDS011;5912;51.034;6.984;2024-01-16T06:32:16;5.50;;;2.90;;
11711;SDS011;5912;51.034;6.984;2024-01-16T06:34:41;7.80;;;2.87;;
11711;SDS011;5912;51.034;6.984;2024-01-16T06:37:06;5.60;;;2.90;;
11711;SDS011;5912;51.034;6.984;2024-01-16T06:39:33;9.23;;;2.90;;
11711;SDS011;5912;51.034;6.984;2024-01-16T06:41:59;6.20;;;2.50;;
11711;SDS011;5912;51.034;6.984;2024-01-16T06:44:24;7.63;;;2.90;;
11711;SDS011;5912;51.034;6.984;2024-01-16T06:46:50;6.70;;;3.13;;
11711;SDS011;5912;51.034;6.984;2024-01-16T06:49:15;5.00;;;2.47;;
11711;SDS011;5912;51.034;6.984;2024-01-16T06:51:40;5.50;;;2.30;;
11711;SDS011;5912;51.034;6.984;2024-01-16T06:54:06;7.97;;;2.53;;
11711;SDS011;5912;51.034;6.984;2024-01-16T06:56:31;8.73;;;2.60;;
11711;SDS011;5912;51.034;6.984;2024-01-16T06:58:57;8.57;;;2.73;;
11711;SDS011;5912;51.034;6.984;2024-01-16T07:01:22;7.93;;;2.43;;
11711;SDS011;5912;51.034;6.984;2024-01-16T07:03:47;9.53;;;2.87;;
11711;SDS011;5912;51.034;6.984;2024-01-16T07:06:13;5.93;;;2.53;;
11711;SDS011;5912;51.034;6.984;2024-01-16T07:08:38;5.67;;;2.60;;
11711;SDS011;5912;51.034;6.984;2024-01-16T07:11:03;6.90;;;2.80;;
11711;SDS011;5912;51.034;6.984;2024-01-16T07:13:32;9.00;;;2.97;;
11711;SDS011;5912;51.034;6.984;2024-01-16T07:15:58;9.27;;;3.10;;
11711;SDS011;5912;51.034;6.984;2024-01-16T07:18:23;6.17;;;2.60;;
11711;SDS011;5912;51.034;6.984;2024-01-16T07:20:48;7.07;;;3.07;;
11711;SDS011;5912;51.034;6.984;2024-01-16T07:23:29;9.10;;;2.80;;
11711;SDS011;5912;51.034;6.984;2024-01-16T07:25:55;6.70;;;3.10;;
11711;SDS011;5912;51.034;6.984;2024-01-16T07:28:20;12.60;;;3.00;;
11711;SDS011;5912;51.034;6.984;2024-01-16T07:30:47;6.53;;;2.90;;
11711;SDS011;5912;51.034;6.984;2024-01-16T07:33:18;10.27;;;2.90;;
11711;SDS011;5912;51.034;6.984;2024-01-16T07:35:43;7.03;;;3.07;;
11711;SDS011;5912;51.034;6.984;2024-01-16T07:38:12;7.87;;;2.80;;
11711;SDS011;5912;51.034;6.984;2024-01-16T07:40:38;6.17;;;2.77;;
11711;SDS011;5912;51.034;6.984;2024-01-16T07:43:03;7.83;;;4.23;;
11711;SDS011;5912;51.034;6.984;2024-01-16T07:45:28;8.87;;;3.00;;
11711;SDS011;5912;51.034;6.984;2024-01-16T07:47:53;4.63;;;2.70;;
11711;SDS011;5912;51.034;6.984;2024-01-16T07:50:19;6.70;;;2.60;;
11711;SDS011;5912;51.034;6.984;2024-01-16T07:52:44;6.80;;;2.73;;
11711;SDS011;5912;51.034;6.984;2024-01-16T07:55:09;9.10;;;3.00;;
11711;SDS011;5912;51.034;6.984;2024-01-16T07:57:35;8.90;;;2.93;;
11711;SDS011;5912;51.034;6.984;2024-01-16T08:00:00;7.13;;;2.77;;
11711;SDS011;5912;51.034;6.984;2024-01-16T08:02:32;6.80;;;2.70;;
11711;SDS011;5912;51.034;6.984;2024-01-16T08:04:59;6.77;;;2.50;;
11711;SDS011;5912;51.034;6.984;2024-01-16T08:07:24;5.27;;;2.70;;
11711;SDS011;5912;51.034;6.984;2024-01-16T08:09:49;8.83;;;2.73;;
11711;SDS011;5912;51.034;6.984;2024-01-16T08:12:15;4.77;;;2.37;;
11711;SDS011;5912;51.034;6.984;2024-01-16T08:14:40;6.80;;;2.67;;
11711;SDS011;5912;51.034;6.984;2024-01-16T08:17:06;3.80;;;2.23;;
11711;SDS011;5912;51.034;6.984;2024-01-16T08:19:31;10.67;;;2.60;;
11711;SDS011;5912;51.034;6.984;2024-01-16T08:21:57;7.00;;;2.53;;
11711;SDS011;5912;51.034;6.984;2024-01-16T08:24:23;9.13;;;2.60;;
11711;SDS011;5912;51.034;6.984;2024-01-16T08:26:48;7.57;;;2.30;;
11711;SDS011;5912;51.034;6.984;2024-01-16T08:32:16;5.80;;;1.90;;
11711;SDS011;5912;51.034;6.984;2024-01-16T08:34:42;6.17;;;2.30;;
11711;SDS011;5912;51.034;6.984;2024-01-16T08:37:08;5.57;;;2.47;;
11711;SDS011;5912;51.034;6.984;2024-01-16T08:39:34;5.47;;;2.23;;
11711;SDS011;5912;51.034;6.984;2024-01-16T08:41:59;8.83;;;2.37;;
11711;SDS011;5912;51.034;6.984;2024-01-16T08:44:27;7.50;;;2.30;;
11711;SDS011;5912;51.034;6.984;2024-01-16T08:46:52;9.90;;;2.33;;
11711;SDS011;5912;51.034;6.984;2024-01-16T08:49:18;7.40;;;2.03;;
11711;SDS011;5912;51.034;6.984;2024-01-16T08:51:43;12.93;;;2.33;;
11711;SDS011;5912;51.034;6.984;2024-01-16T08:54:08;10.47;;;2.73;;
11711;SDS011;5912;51.034;6.984;2024-01-16T08:56:33;4.30;;;2.10;;
11711;SDS011;5912;51.034;6.984;2024-01-16T08:58:59;4.10;;;1.90;;
11711;SDS011;5912;51.034;6.984;2024-01-16T09:01:24;5.77;;;2.13;;
11711;SDS011;5912;51.034;6.984;2024-01-16T09:03:49;6.03;;;1.93;;
11711;SDS011;5912;51.034;6.984;2024-01-16T09:06:16;7.87;;;2.10;;
11711;SDS011;5912;51.034;6.984;2024-01-16T09:08:42;4.67;;;2.10;;
11711;SDS011;5912;51.034;6.984;2024-01-16T09:11:09;6.43;;;2.00;;
11711;SDS011;5912;51.034;6.984;2024-01-16T09:13:35;4.80;;;2.20;;
11711;SDS011;5912;51.034;6.984;2024-01-16T09:16:01;3.47;;;1.80;;
11711;SDS011;5912;51.034;6.984;2024-01-16T09:18:27;5.13;;;2.27;;
11711;SDS011;5912;51.034;6.984;2024-01-16T09:20:52;6.17;;;2.07;;
11711;SDS011;5912;51.034;6.984;2024-01-16T09:23:17;4.23;;;2.13;;
11711;SDS011;5912;51.034;6.984;2024-01-16T09:25:43;10.57;;;1.83;;
11711;SDS011;5912;51.034;6.984;2024-01-16T09:28:08;6.57;;;2.40;;
11711;SDS011;5912;51.034;6.984;2024-01-16T09:30:33;4.23;;;1.80;;
11711;SDS011;5912;51.034;6.984;2024-01-16T09:33:08;4.00;;;1.77;;
11711;SDS011;5912;51.034;6.984;2024-01-16T09:35:35;5.53;;;1.80;;
11711;SDS011;5912;51.034;6.984;2024-01-16T09:38:01;4.37;;;1.80;;
11711;SDS011;5912;51.034;6.984;2024-01-16T09:40:26;5.70;;;2.17;;
11711;SDS011;5912;51.034;6.984;2024-01-16T09:42:52;6.67;;;2.30;;
11711;SDS011;5912;51.034;6.984;2024-01-16T09:45:19;5.67;;;2.00;;
11711;SDS011;5912;51.034;6.984;2024-01-16T09:47:47;4.87;;;2.00;;
11711;SDS011;5912;51.034;6.984;2024-01-16T09:50:18;5.37;;;2.10;;
11711;SDS011;5912;51.034;6.984;2024-01-16T09:52:47;4.23;;;2.30;;
11711;SDS011;5912;51.034;6.984;2024-01-16T09:55:13;5.33;;;2.10;;
11711;SDS011;5912;51.034;6.984;2024-01-16T09:57:43;5.80;;;2.03;;
11711;SDS011;5912;51.034;6.984;2024-01-16T10:00:11;7.00;;;2.07;;
11711;SDS011;5912;51.034;6.984;2024-01-16T10:02:40;6.30;;;2.73;;
11711;SDS011;5912;51.034;6.984;2024-01-16T10:05:12;6.60;;;2.27;;
11711;SDS011;5912;51.034;6.984;2024-01-16T10:07:39;4.40;;;2.47;;
11711;SDS011;5912;51.034;6.984;2024-01-16T10:10:05;4.07;;;1.80;;
11711;SDS011;5912;51.034;6.984;2024-01-16T10:12:32;7.10;;;2.20;;
11711;SDS011;5912;51.034;6.984;2024-01-16T10:14:57;3.87;;;2.00;;
11711;SDS011;5912;51.034;6.984;2024-01-16T10:17:35;4.20;;;2.20;;
11711;SDS011;5912;51.034;6.984;2024-01-16T10:20:04;8.10;;;3.00;;
11711;SDS011;5912;51.034;6.984;2024-01-16T10:22:30;4.67;;;2.20;;
11711;SDS011;5912;51.034;6.984;2024-01-16T10:25:09;5.40;;;1.80;;
11711;SDS011;5912;51.034;6.984;2024-01-16T10:27:38;5.63;;;2.17;;
11711;SDS011;5912;51.034;6.984;2024-01-16T10:30:05;6.53;;;2.70;;
11711;SDS011;5912;51.034;6.984;2024-01-16T10:32:34;7.10;;;2.53;;
11711;SDS011;5912;51.034;6.984;2024-01-16T10:35:03;6.93;;;2.47;;
11711;SDS011;5912;51.034;6.984;2024-01-16T10:37:30;7.07;;;2.23;;
11711;SDS011;5912;51.034;6.984;2024-01-16T10:40:05;3.93;;;2.00;;
11711;SDS011;5912;51.034;6.984;2024-01-16T10:42:32;5.97;;;2.10;;
11711;SDS011;5912;51.034;6.984;2024-01-16T10:44:57;6.90;;;2.37;;
11711;SDS011;5912;51.034;6.984;2024-01-16T10:47:25;5.53;;;2.30;;
11711;SDS011;5912;51.034;6.984;2024-01-16T10:49:50;4.03;;;2.40;;
11711;SDS011;5912;51.034;6.984;2024-01-16T10:52:17;4.47;;;2.43;;
11711;SDS011;5912;51.034;6.984;2024-01-16T10:54:43;4.33;;;2.00;;
11711;SDS011;5912;51.034;6.984;2024-01-16T10:57:13;6.27;;;2.10;;
11711;SDS011;5912;51.034;6.984;2024-01-16T11:02:36;5.60;;;1.80;;
11711;SDS011;5912;51.034;6.984;2024-01-16T11:05:07;3.93;;;1.83;;
11711;SDS011;5912;51.034;6.984;2024-01-16T11:07:36;6.00;;;2.07;;
11711;SDS011;5912;51.034;6.984;2024-01-16T11:10:02;4.27;;;2.07;;
11711;SDS011;5912;51.034;6.984;2024-01-16T11:12:29;7.50;;;3.90;;
11711;SDS011;5912;51.034;6.984;2024-01-16T11:14:56;15.40;;;9.50;;
11711;SDS011;5912;51.034;6.984;2024-01-16T11:17:26;7.73;;;3.67;;
11711;SDS011;5912;51.034;6.984;2024-01-16T11:19:54;7.53;;;2.03;;
11711;SDS011;5912;51.034;6.984;2024-01-16T11:22:22;6.13;;;2.00;;
11711;SDS011;5912;51.034;6.984;2024-01-16T11:25:07;7.83;;;3.20;;
11711;SDS011;5912;51.034;6.984;2024-01-16T11:27:36;5.83;;;2.70;;
11711;SDS011;5912;51.034;6.984;2024-01-16T11:30:03;4.77;;;1.90;;
11711;SDS011;5912;51.034;6.984;2024-01-16T11:32:34;4.90;;;1.80;;
11711;SDS011;5912;51.034;6.984;2024-01-16T11:35:01;7.67;;;1.97;;
11711;SDS011;5912;51.034;6.984;2024-01-16T11:37:33;4.73;;;1.73;;
11711;SDS011;5912;51.034;6.984;2024-01-16T11:40:41;4.30;;;1.90;;
11711;SDS011;5912;51.034;6.984;2024-01-16T11:42:48;6.73;;;1.90;;
11711;SDS011;5912;51.034;6.984;2024-01-16T11:48:11;4.90;;;1.83;;
11711;SDS011;5912;51.034;6.984;2024-01-16T11:50:37;3.93;;;1.90;;
11711;SDS011;5912;51.034;6.984;2024-01-16T11:53:03;4.43;;;2.00;;
11711;SDS011;5912;51.034;6.984;2024-01-16T11:55:32;4.83;;;2.10;;
11711;SDS011;5912;51.034;6.984;2024-01-16T12:01:03;5.33;;;1.80;;
11711;SDS011;5912;51.034;6.984;2024-01-16T12:03:30;3.83;;;2.03;;
11711;SDS011;5912;51.034;6.984;2024-01-16T12:08:25;7.67;;;3.90;;
11711;SDS011;5912;51.034;6.984;2024-01-16T12:10:50;8.23;;;4.77;;
11711;SDS011;5912;51.034;6.984;2024-01-16T12:13:16;6.87;;;3.53;;
11711;SDS011;5912;51.034;6.984;2024-01-16T12:15:41;5.37;;;2.87;;
11711;SDS011;5912;51.034;6.984;2024-01-16T12:18:07;5.53;;;2.30;;
11711;SDS011;5912;51.034;6.984;2024-01-16T12:20:34;6.47;;;2.10;;
11711;SDS011;5912;51.034;6.984;2024-01-16T12:25:30;6.97;;;2.03;;
11711;SDS011;5912;51.034;6.984;2024-01-16T12:27:57;6.97;;;2.37;;
11711;SDS011;5912;51.034;6.984;2024-01-16T12:30:24;4.83;;;2.30;;
11711;SDS011;5912;51.034;6.984;2024-01-16T12:32:50;9.00;;;2.40;;
11711;SDS011;5912;51.034;6.984;2024-01-16T12:35:22;7.47;;;2.87;;
11711;SDS011;5912;51.034;6.984;2024-01-16T12:38:00;6.80;;;3.30;;
11711;SDS011;5912;51.034;6.984;2024-01-16T12:40:26;4.20;;;2.30;;
11711;SDS011;5912;51.034;6.984;2024-01-16T12:42:51;5.63;;;2.47;;
11711;SDS011;5912;51.034;6.984;2024-01-16T12:45:18;10.60;;;4.80;;
11711;SDS011;5912;51.034;6.984;2024-01-16T12:47:44;6.57;;;2.50;;
11711;SDS011;5912;51.034;6.984;2024-01-16T12:50:09;6.27;;;2.53;;
11711;SDS011;5912;51.034;6.984;2024-01-16T12:52:35;7.70;;;2.43;;
11711;SDS011;5912;51.034;6.984;2024-01-16T12:55:00;5.47;;;2.67;;
11711;SDS011;5912;51.034;6.984;2024-01-16T12:57:26;5.80;;;2.30;;
11711;SDS011;5912;51.034;6.984;2024-01-16T12:59:51;3.47;;;2.00;;
11711;SDS011;5912;51.034;6.984;2024-01-16T13:02:21;6.40;;;2.33;;
11711;SDS011;5912;51.034;6.984;2024-01-16T13:04:48;4.50;;;2.33;;
11711;SDS011;5912;51.034;6.984;2024-01-16T13:07:21;5.10;;;2.27;;
11711;SDS011;5912;51.034;6.984;2024-01-16T13:09:47;5.93;;;2.50;;
11711;SDS011;5912;51.034;6.984;2024-01-16T13:12:19;3.63;;;2.23;;
11711;SDS011;5912;51.034;6.984;2024-01-16T13:14:45;4.50;;;1.90;;
11711;SDS011;5912;51.034;6.984;2024-01-16T13:17:10;5.57;;;2.37;;
11711;SDS011;5912;51.034;6.984;2024-01-16T13:19:36;6.87;;;2.13;;
11711;SDS011;5912;51.034;6.984;2024-01-16T13:22:01;3.63;;;1.97;;
11711;SDS011;5912;51.034;6.984;2024-01-16T13:24:27;4.80;;;2.20;;
11711;SDS011;5912;51.034;6.984;2024-01-16T13:26:52;5.97;;;2.23;;
11711;SDS011;5912;51.034;6.984;2024-01-16T13:29:18;5.13;;;2.60;;
11711;SDS011;5912;51.034;6.984;2024-01-16T13:31:44;4.93;;;2.00;;
11711;SDS011;5912;51.034;6.984;2024-01-16T13:34:09;3.97;;;2.27;;
11711;SDS011;5912;51.034;6.984;2024-01-16T13:36:35;6.33;;;2.20;;
11711;SDS011;5912;51.034;6.984;2024-01-16T13:39:01;4.90;;;2.70;;
11711;SDS011;5912;51.034;6.984;2024-01-16T13:41:26;5.60;;;2.30;;
11711;SDS011;5912;51.034;6.984;2024-01-16T13:43:52;4.73;;;2.60;;
11711;SDS011;5912;51.034;6.984;2024-01-16T13:46:17;5.07;;;2.50;;
11711;SDS011;5912;51.034;6.984;2024-01-16T13:48:43;5.57;;;2.30;;
11711;SDS011;5912;51.034;6.984;2024-01-16T13:51:10;5.00;;;2.40;;
11711;SDS011;5912;51.034;6.984;2024-01-16T13:53:35;8.30;;;2.53;;
11711;SDS011;5912;51.034;6.984;2024-01-16T13:56:00;3.13;;;2.47;;
11711;SDS011;5912;51.034;6.984;2024-01-16T13:58:26;5.63;;;2.43;;
11711;SDS011;5912;51.034;6.984;2024-01-16T14:00:51;5.83;;;2.97;;
11711;SDS011;5912;51.034;6.984;2024-01-16T14:03:16;5.73;;;2.63;;
11711;SDS011;5912;51.034;6.984;2024-01-16T14:05:42;4.43;;;2.60;;
11711;SDS011;5912;51.034;6.984;2024-01-16T14:08:08;5.83;;;2.30;;
11711;SDS011;5912;51.034;6.984;2024-01-16T14:10:36;5.27;;;2.90;;
11711;SDS011;5912;51.034;6.984;2024-01-16T14:13:02;4.43;;;2.60;;
11711;SDS011;5912;51.034;6.984;2024-01-16T14:15:29;3.47;;;2.20;;
11711;SDS011;5912;51.034;6.984;2024-01-16T14:17:55;5.57;;;2.40;;
11711;SDS011;5912;51.034;6.984;2024-01-16T14:20:21;4.60;;;2.43;;
11711;SDS011;5912;51.034;6.984;2024-01-16T14:22:49;4.93;;;2.57;;
11711;SDS011;5912;51.034;6.984;2024-01-16T14:25:15;4.07;;;2.20;;
11711;SDS011;5912;51.034;6.984;2024-01-16T14:27:44;5.73;;;2.87;;
11711;SDS011;5912;51.034;6.984;2024-01-16T14:30:33;7.17;;;2.60;;
11711;SDS011;5912;51.034;6.984;2024-01-16T14:33:00;4.20;;;2.70;;
11711;SDS011;5912;51.034;6.984;2024-01-16T14:35:26;6.37;;;2.73;;
11711;SDS011;5912;51.034;6.984;2024-01-16T23:42:04;8.30;;;5.20;;
11711;SDS011;5912;51.034;6.984;2024-01-16T23:45:51;7.57;;;5.13;;
11711;SDS011;5912;51.034;6.984;2024-01-16T23:52:54;7.93;;;5.57;;
